CSCL Sydney — VRBH9 — position and weather

sailwx.info

Track history (hours):
 
Tides and Currents Weather Stations Pressure Air Temp Water Temp Dewpoint Dewpoint Depression Visibility Wind Speed Wind Dir Waves Ship Positions

CSCL Sydney (Hong Kong)

Last reported at 2018-Jan-29 22:37 UTC. Time now 2018-Feb-22 16:55 UTC.
Position N 01°15' E 103°24'.
Warning: this ship's position is 23 days out of date.

Type: Ship (hazmat cat A). MMSI: 477020200.

Date/timePositionNaut miles runAvg speedWind from/ knotsBaromVisibWave heightAir tempDewpointWater temp
2018-Jan-29 22:37N 01°15' E 103°24'416.5
2018-Jan-29 22:23N 01°13' E 103°27'616.2
2018-Jan-29 22:00N 01°12' E 103°34'816.3
2018-Jan-29 21:30N 01°10' E 103°41'814.8
2018-Jan-29 20:56N 01°11' E 103°50'4 8.8
2018-Jan-29 20:30N 01°14' E 103°52'2 3.9
2018-Jan-29 20:00N 01°16' E 103°50'0 0.4
2018-Jan-29 19:25N 01°16' E 103°50'0 0.0
2018-Jan-29 18:55N 01°16' E 103°50'0 0.0
2018-Jan-29 18:28N 01°16' E 103°50'0 0.0
2018-Jan-29 17:55N 01°16' E 103°50'0 0.0
2018-Jan-29 17:25N 01°16' E 103°50'0 0.0
2018-Jan-29 16:55N 01°16' E 103°50'0 0.0
2018-Jan-29 16:22N 01°16' E 103°50'0 0.0
2018-Jan-29 15:55N 01°16' E 103°50'0 0.0
2018-Jan-29 15:31N 01°16' E 103°50'0 0.0
2018-Jan-29 14:40N 01°16' E 103°50'0 0.0
2018-Jan-29 14:31N 01°16' E 103°50'0 0.0
2018-Jan-29 13:54N 01°16' E 103°50'0 0.0
2018-Jan-29 13:21N 01°16' E 103°50'0 0.0
2018-Jan-29 13:00N 01°16' E 103°50'0 0.0
2018-Jan-29 12:30N 01°16' E 103°50'0 0.0
2018-Jan-29 12:00N 01°16' E 103°50'0 0.0
2018-Jan-29 11:24N 01°16' E 103°50'0 0.0
2018-Jan-29 11:00N 01°16' E 103°50'0 0.0
2018-Jan-29 10:27N 01°16' E 103°50'0 0.0
2018-Jan-29 09:54N 01°16' E 103°50'0 0.0
2018-Jan-29 09:30N 01°16' E 103°50'0 0.0
2018-Jan-29 09:00N 01°16' E 103°50'0 0.0
2018-Jan-29 08:21N 01°16' E 103°50'0 0.0
2018-Jan-29 07:54N 01°16' E 103°50'0 0.0
2018-Jan-29 07:30N 01°16' E 103°50'0 0.0
2018-Jan-29 06:54N 01°16' E 103°50'0 0.1
2018-Jan-29 06:30N 01°16' E 103°50'2 3.0
2018-Jan-29 06:00N 01°15' E 103°51'3 5.5
2018-Jan-29 05:30N 01°14' E 103°54'1 2.3
2018-Jan-29 05:00N 01°14' E 103°55'4 7.5
2018-Jan-29 04:30N 01°15' E 103°58'  
2018-Jan-23 07:17N 23°59' E 118°17'517.8
2018-Jan-23 07:00N 24°04' E 118°18'816.6
2018-Jan-23 06:31N 24°12' E 118°17'815.0
2018-Jan-23 06:00N 24°18' E 118°12'713.2
2018-Jan-23 05:30N 24°23' E 118°07'510.3
2018-Jan-23 05:00N 24°26' E 118°03'4 8.6
2018-Jan-23 04:30N 24°30' E 118°04'1 0.9
2018-Jan-23 03:56N 24°31' E 118°05'0 0.0
2018-Jan-23 03:29N 24°31' E 118°05'0 0.0
2018-Jan-23 02:56N 24°31' E 118°05'0 0.0
2018-Jan-23 02:23N 24°31' E 118°05'0 0.0
2018-Jan-23 01:59N 24°31' E 118°05'0 0.1
2018-Jan-23 01:26N 24°31' E 118°05'0 0.1
2018-Jan-23 00:59N 24°31' E 118°05'0 0.0
2018-Jan-23 00:23N 24°31' E 118°05'0 0.0
2018-Jan-22 23:56N 24°31' E 118°05'0 0.0
2018-Jan-22 23:20N 24°31' E 118°05'0 0.0
2018-Jan-22 22:44N 24°31' E 118°05'0 0.0
2018-Jan-22 22:20N 24°31' E 118°05'0 0.0
2018-Jan-22 20:08N 24°31' E 118°05'0 0.0
2018-Jan-22 19:56N 24°31' E 118°05'0 0.0
2018-Jan-22 19:29N 24°31' E 118°05'0 0.0
2018-Jan-22 18:56N 24°31' E 118°05'0 0.0
2018-Jan-22 18:26N 24°31' E 118°05'0 0.0
2018-Jan-22 17:50N 24°31' E 118°05'0 0.0
2018-Jan-22 17:29N 24°31' E 118°05'0 0.0
2018-Jan-22 16:50N 24°31' E 118°05'0 0.0
2018-Jan-22 16:26N 24°31' E 118°05'0 0.0
2018-Jan-22 15:59N 24°31' E 118°05'0 0.3
2018-Jan-22 15:30N 24°31' E 118°05'4 7.4
2018-Jan-22 15:00N 24°27' E 118°03'611.7
2018-Jan-22 14:30N 24°23' E 118°07'612.7
2018-Jan-22 14:00N 24°19' E 118°12'612.5
2018-Jan-22 13:30N 24°14' E 118°16'611.9
2018-Jan-22 13:00N 24°09' E 118°20'0 0.9
2018-Jan-22 12:29N 24°10' E 118°21'1 1.9
2018-Jan-22 11:59N 24°10' E 118°21'1 1.9
2018-Jan-22 11:29N 24°11' E 118°22'0 0.6
2018-Jan-22 11:00N 24°11' E 118°22'1 2.2
2018-Jan-22 10:30N 24°12' E 118°23'1 2.2
2018-Jan-22 09:57N 24°13' E 118°24'1 2.1
2018-Jan-22 09:28N 24°13' E 118°25'4 9.1
2018-Jan-22 09:00N 24°14' E 118°30'510.4
2018-Jan-22 08:30N 24°15' E 118°36'510.5
2018-Jan-22 07:58N 24°15' E 118°41'  
Track history (hours):
 
Tides and Currents Weather Stations Pressure Air Temp Water Temp Dewpoint Dewpoint Depression Visibility Wind Speed Wind Dir Waves Ship Positions

CSCL Sydney (Hong Kong)

Last reported at 2018-Jan-29 22:37 UTC. Time now 2018-Feb-22 16:55 UTC.
Position N 01°15' E 103°24'.
Warning: this ship's position is 23 days out of date.

Type: Ship (hazmat cat A). MMSI: 477020200.

Date/timePositionNaut miles runAvg speedWind from/ knotsBaromVisibWave heightAir tempDewpointWater temp
2018-Jan-29 22:37N 01°15' E 103°24'416.5
2018-Jan-29 22:23N 01°13' E 103°27'616.2
2018-Jan-29 22:00N 01°12' E 103°34'816.3
2018-Jan-29 21:30N 01°10' E 103°41'814.8
2018-Jan-29 20:56N 01°11' E 103°50'4 8.8
2018-Jan-29 20:30N 01°14' E 103°52'2 3.9
2018-Jan-29 20:00N 01°16' E 103°50'0 0.4
2018-Jan-29 19:25N 01°16' E 103°50'0 0.0
2018-Jan-29 18:55N 01°16' E 103°50'0 0.0
2018-Jan-29 18:28N 01°16' E 103°50'0 0.0
2018-Jan-29 17:55N 01°16' E 103°50'0 0.0
2018-Jan-29 17:25N 01°16' E 103°50'0 0.0
2018-Jan-29 16:55N 01°16' E 103°50'0 0.0
2018-Jan-29 16:22N 01°16' E 103°50'0 0.0
2018-Jan-29 15:55N 01°16' E 103°50'0 0.0
2018-Jan-29 15:31N 01°16' E 103°50'0 0.0
2018-Jan-29 14:40N 01°16' E 103°50'0 0.0
2018-Jan-29 14:31N 01°16' E 103°50'0 0.0
2018-Jan-29 13:54N 01°16' E 103°50'0 0.0
2018-Jan-29 13:21N 01°16' E 103°50'0 0.0
2018-Jan-29 13:00N 01°16' E 103°50'0 0.0
2018-Jan-29 12:30N 01°16' E 103°50'0 0.0
2018-Jan-29 12:00N 01°16' E 103°50'0 0.0
2018-Jan-29 11:24N 01°16' E 103°50'0 0.0
2018-Jan-29 11:00N 01°16' E 103°50'0 0.0
2018-Jan-29 10:27N 01°16' E 103°50'0 0.0
2018-Jan-29 09:54N 01°16' E 103°50'0 0.0
2018-Jan-29 09:30N 01°16' E 103°50'0 0.0
2018-Jan-29 09:00N 01°16' E 103°50'0 0.0
2018-Jan-29 08:21N 01°16' E 103°50'0 0.0
2018-Jan-29 07:54N 01°16' E 103°50'0 0.0
2018-Jan-29 07:30N 01°16' E 103°50'0 0.0
2018-Jan-29 06:54N 01°16' E 103°50'0 0.1
2018-Jan-29 06:30N 01°16' E 103°50'2 3.0
2018-Jan-29 06:00N 01°15' E 103°51'3 5.5
2018-Jan-29 05:30N 01°14' E 103°54'1 2.3
2018-Jan-29 05:00N 01°14' E 103°55'4 7.5
2018-Jan-29 04:30N 01°15' E 103°58'  
2018-Jan-23 07:17N 23°59' E 118°17'517.8
2018-Jan-23 07:00N 24°04' E 118°18'816.6
2018-Jan-23 06:31N 24°12' E 118°17'815.0
2018-Jan-23 06:00N 24°18' E 118°12'713.2
2018-Jan-23 05:30N 24°23' E 118°07'510.3
2018-Jan-23 05:00N 24°26' E 118°03'4 8.6
2018-Jan-23 04:30N 24°30' E 118°04'1 0.9
2018-Jan-23 03:56N 24°31' E 118°05'0 0.0
2018-Jan-23 03:29N 24°31' E 118°05'0 0.0
2018-Jan-23 02:56N 24°31' E 118°05'0 0.0
2018-Jan-23 02:23N 24°31' E 118°05'0 0.0
2018-Jan-23 01:59N 24°31' E 118°05'0 0.1
2018-Jan-23 01:26N 24°31' E 118°05'0 0.1
2018-Jan-23 00:59N 24°31' E 118°05'0 0.0
2018-Jan-23 00:23N 24°31' E 118°05'0 0.0
2018-Jan-22 23:56N 24°31' E 118°05'0 0.0
2018-Jan-22 23:20N 24°31' E 118°05'0 0.0
2018-Jan-22 22:44N 24°31' E 118°05'0 0.0
2018-Jan-22 22:20N 24°31' E 118°05'0 0.0
2018-Jan-22 20:08N 24°31' E 118°05'0 0.0
2018-Jan-22 19:56N 24°31' E 118°05'0 0.0
2018-Jan-22 19:29N 24°31' E 118°05'0 0.0
2018-Jan-22 18:56N 24°31' E 118°05'0 0.0
2018-Jan-22 18:26N 24°31' E 118°05'0 0.0
2018-Jan-22 17:50N 24°31' E 118°05'0 0.0
2018-Jan-22 17:29N 24°31' E 118°05'0 0.0
2018-Jan-22 16:50N 24°31' E 118°05'0 0.0
2018-Jan-22 16:26N 24°31' E 118°05'0 0.0
2018-Jan-22 15:59N 24°31' E 118°05'0 0.3
2018-Jan-22 15:30N 24°31' E 118°05'4 7.4
2018-Jan-22 15:00N 24°27' E 118°03'611.7
2018-Jan-22 14:30N 24°23' E 118°07'612.7
2018-Jan-22 14:00N 24°19' E 118°12'612.5
2018-Jan-22 13:30N 24°14' E 118°16'611.9
2018-Jan-22 13:00N 24°09' E 118°20'0 0.9
2018-Jan-22 12:29N 24°10' E 118°21'1 1.9
2018-Jan-22 11:59N 24°10' E 118°21'1 1.9
2018-Jan-22 11:29N 24°11' E 118°22'0 0.6
2018-Jan-22 11:00N 24°11' E 118°22'1 2.2
2018-Jan-22 10:30N 24°12' E 118°23'1 2.2
2018-Jan-22 09:57N 24°13' E 118°24'1 2.1
2018-Jan-22 09:28N 24°13' E 118°25'4 9.1
2018-Jan-22 09:00N 24°14' E 118°30'510.4
2018-Jan-22 08:30N 24°15' E 118°36'510.5
2018-Jan-22 07:58N 24°15' E 118°41'  

Dump ship's entire track history